sensor_id;sensor_type;location;lat;lon;timestamp;pressure;altitude;pressure_sealevel;temperature;humidity
43217;BME280;71549;42.686;23.300;2023-12-20T00:01:25;95045.75;;;21.04;32.92
43217;BME280;71549;42.686;23.300;2023-12-20T00:03:26;95007.16;;;20.71;32.88
43217;BME280;71549;42.686;23.300;2023-12-20T00:05:27;94976.06;;;20.61;33.02
43217;BME280;71549;42.686;23.300;2023-12-20T00:07:27;95043.69;;;21.01;33.03
43217;BME280;71549;42.686;23.300;2023-12-20T00:09:28;95041.00;;;21.01;32.76
43217;BME280;71549;42.686;23.300;2023-12-20T00:11:28;95000.03;;;20.75;32.64
43217;BME280;71549;42.686;23.300;2023-12-20T00:13:29;94973.50;;;20.64;32.89
43217;BME280;71549;42.686;23.300;2023-12-20T00:15:29;95008.72;;;20.72;32.96
43217;BME280;71549;42.686;23.300;2023-12-20T00:17:31;95008.03;;;20.83;32.55
43217;BME280;71549;42.686;23.300;2023-12-20T00:19:31;94986.28;;;20.67;32.73
43217;BME280;71549;42.686;23.300;2023-12-20T00:21:32;94912.69;;;20.21;32.74
43217;BME280;71549;42.686;23.300;2023-12-20T00:23:32;95024.72;;;20.98;32.57
43217;BME280;71549;42.686;23.300;2023-12-20T00:25:34;94947.03;;;20.45;32.78
43217;BME280;71549;42.686;23.300;2023-12-20T00:27:35;94976.00;;;20.70;32.94
43217;BME280;71549;42.686;23.300;2023-12-20T00:29:36;94978.19;;;20.76;32.69
43217;BME280;71549;42.686;23.300;2023-12-20T00:31:36;95013.81;;;20.94;32.93
43217;BME280;71549;42.686;23.300;2023-12-20T00:33:37;95010.34;;;20.94;32.94
43217;BME280;71549;42.686;23.300;2023-12-20T00:35:38;95003.41;;;20.93;32.92
43217;BME280;71549;42.686;23.300;2023-12-20T00:37:39;94965.22;;;20.70;33.01
43217;BME280;71549;42.686;23.300;2023-12-20T00:39:39;94946.50;;;20.52;32.95
43217;BME280;71549;42.686;23.300;2023-12-20T00:41:40;94966.81;;;20.71;32.97
43217;BME280;71549;42.686;23.300;2023-12-20T00:43:40;94998.97;;;20.88;32.65
43217;BME280;71549;42.686;23.300;2023-12-20T00:45:41;94989.66;;;20.85;32.81
43217;BME280;71549;42.686;23.300;2023-12-20T00:47:42;94917.47;;;20.37;32.82
43217;BME280;71549;42.686;23.300;2023-12-20T00:49:43;94920.38;;;20.32;33.05
43217;BME280;71549;42.686;23.300;2023-12-20T00:51:43;94985.88;;;20.86;32.80
43217;BME280;71549;42.686;23.300;2023-12-20T00:53:44;94779.97;;;19.45;32.72
43217;BME280;71549;42.686;23.300;2023-12-20T00:55:45;94925.97;;;20.47;32.88
43217;BME280;71549;42.686;23.300;2023-12-20T00:57:45;94805.63;;;19.73;32.83
43217;BME280;71549;42.686;23.300;2023-12-20T00:59:46;94841.97;;;20.00;32.65
43217;BME280;71549;42.686;23.300;2023-12-20T01:01:46;94772.66;;;19.55;32.90
43217;BME280;71549;42.686;23.300;2023-12-20T01:03:47;94803.75;;;19.64;32.95
43217;BME280;71549;42.686;23.300;2023-12-20T01:05:48;94975.56;;;20.89;33.00
43217;BME280;71549;42.686;23.300;2023-12-20T01:07:50;94778.50;;;19.57;32.91
43217;BME280;71549;42.686;23.300;2023-12-20T01:09:50;94779.28;;;19.57;33.04
43217;BME280;71549;42.686;23.300;2023-12-20T01:11:51;94909.50;;;20.49;32.76
43217;BME280;71549;42.686;23.300;2023-12-20T01:13:51;94844.16;;;20.06;32.76
43217;BME280;71549;42.686;23.300;2023-12-20T01:15:52;94884.34;;;20.24;32.81
43217;BME280;71549;42.686;23.300;2023-12-20T01:17:52;94936.91;;;20.72;32.60
43217;BME280;71549;42.686;23.300;2023-12-20T01:19:53;94881.28;;;20.34;32.86
43217;BME280;71549;42.686;23.300;2023-12-20T01:21:53;94914.22;;;20.52;32.94
43217;BME280;71549;42.686;23.300;2023-12-20T01:23:54;94848.69;;;20.15;32.87
43217;BME280;71549;42.686;23.300;2023-12-20T01:25:55;94952.00;;;20.85;32.58
43217;BME280;71549;42.686;23.300;2023-12-20T01:27:55;94936.63;;;20.86;32.38
43217;BME280;71549;42.686;23.300;2023-12-20T01:29:56;94781.44;;;19.73;32.96
43217;BME280;71549;42.686;23.300;2023-12-20T01:31:57;94819.38;;;20.01;32.59
43217;BME280;71549;42.686;23.300;2023-12-20T01:33:58;94936.91;;;20.93;32.78
43217;BME280;71549;42.686;23.300;2023-12-20T01:35:58;94939.78;;;20.88;32.88
43217;BME280;71549;42.686;23.300;2023-12-20T01:37:59;94925.94;;;20.77;32.62
43217;BME280;71549;42.686;23.300;2023-12-20T01:39:59;94836.28;;;20.22;32.83
43217;BME280;71549;42.686;23.300;2023-12-20T01:42:00;94757.91;;;19.70;33.00
43217;BME280;71549;42.686;23.300;2023-12-20T01:44:00;94888.75;;;20.58;32.86
43217;BME280;71549;42.686;23.300;2023-12-20T01:46:01;94922.41;;;20.85;32.75
43217;BME280;71549;42.686;23.300;2023-12-20T01:48:02;94912.31;;;20.82;32.48
43217;BME280;71549;42.686;23.300;2023-12-20T01:50:05;94799.78;;;20.00;32.73
43217;BME280;71549;42.686;23.300;2023-12-20T01:52:08;94881.53;;;20.71;32.50
43217;BME280;71549;42.686;23.300;2023-12-20T01:56:10;94879.44;;;20.77;32.81
43217;BME280;71549;42.686;23.300;2023-12-20T01:58:12;94792.84;;;20.20;32.77
43217;BME280;71549;42.686;23.300;2023-12-20T02:00:14;94815.16;;;20.21;32.81
43217;BME280;71549;42.686;23.300;2023-12-20T02:02:15;94773.84;;;20.04;32.79
43217;BME280;71549;42.686;23.300;2023-12-20T02:04:16;94808.56;;;20.31;32.76
43217;BME280;71549;42.686;23.300;2023-12-20T02:06:18;94906.19;;;20.94;32.84
43217;BME280;71549;42.686;23.300;2023-12-20T02:08:18;94902.25;;;20.92;32.78
43217;BME280;71549;42.686;23.300;2023-12-20T02:10:19;94901.47;;;20.91;32.96
43217;BME280;71549;42.686;23.300;2023-12-20T02:12:20;94717.81;;;19.64;32.86
43217;BME280;71549;42.686;23.300;2023-12-20T02:14:20;94834.41;;;20.44;32.77
43217;BME280;71549;42.686;23.300;2023-12-20T02:16:21;94889.59;;;20.92;32.75
43217;BME280;71549;42.686;23.300;2023-12-20T02:18:22;94858.00;;;20.68;32.70
43217;BME280;71549;42.686;23.300;2023-12-20T02:20:23;94856.53;;;20.71;32.72
43217;BME280;71549;42.686;23.300;2023-12-20T02:22:23;94760.41;;;20.04;32.64
43217;BME280;71549;42.686;23.300;2023-12-20T02:24:24;94877.66;;;20.81;32.63
43217;BME280;71549;42.686;23.300;2023-12-20T02:26:24;94865.84;;;20.73;32.57
43217;BME280;71549;42.686;23.300;2023-12-20T02:28:25;94757.38;;;20.06;32.54
43217;BME280;71549;42.686;23.300;2023-12-20T02:30:25;94876.34;;;20.87;32.54
43217;BME280;71549;42.686;23.300;2023-12-20T02:32:26;94828.78;;;20.58;32.59
43217;BME280;71549;42.686;23.300;2023-12-20T02:34:27;94746.31;;;20.07;32.33
43217;BME280;71549;42.686;23.300;2023-12-20T02:36:28;94775.53;;;20.30;32.85
43217;BME280;71549;42.686;23.300;2023-12-20T02:38:29;94721.47;;;19.90;32.70
43217;BME280;71549;42.686;23.300;2023-12-20T02:40:29;94800.38;;;20.48;32.94
43217;BME280;71549;42.686;23.300;2023-12-20T02:42:30;94810.44;;;20.60;32.57
43217;BME280;71549;42.686;23.300;2023-12-20T02:44:30;94767.34;;;20.26;32.51
43217;BME280;71549;42.686;23.300;2023-12-20T02:46:31;94748.13;;;20.16;32.62
43217;BME280;71549;42.686;23.300;2023-12-20T02:48:31;94834.72;;;20.72;32.57
43217;BME280;71549;42.686;23.300;2023-12-20T02:50:32;94710.72;;;19.90;32.63
43217;BME280;71549;42.686;23.300;2023-12-20T02:52:32;94727.56;;;19.99;32.31
43217;BME280;71549;42.686;23.300;2023-12-20T02:54:33;94796.38;;;20.54;32.27
43217;BME280;71549;42.686;23.300;2023-12-20T02:56:34;94850.09;;;20.84;32.41
43217;BME280;71549;42.686;23.300;2023-12-20T02:58:34;94779.41;;;20.41;32.28
43217;BME280;71549;42.686;23.300;2023-12-20T03:00:35;94658.38;;;19.45;32.71
43217;BME280;71549;42.686;23.300;2023-12-20T03:02:36;94766.31;;;20.19;32.70
43217;BME280;71549;42.686;23.300;2023-12-20T03:04:37;94859.88;;;20.89;32.39
43217;BME280;71549;42.686;23.300;2023-12-20T03:06:38;94863.34;;;20.89;32.54
43217;BME280;71549;42.686;23.300;2023-12-20T03:10:41;94842.03;;;20.84;32.52
43217;BME280;71549;42.686;23.300;2023-12-20T03:12:41;94718.84;;;20.02;32.46
43217;BME280;71549;42.686;23.300;2023-12-20T03:14:43;94853.69;;;20.88;32.54
43217;BME280;71549;42.686;23.300;2023-12-20T03:16:49;94704.63;;;20.01;32.33
43217;BME280;71549;42.686;23.300;2023-12-20T03:18:50;94759.22;;;20.35;32.74
43217;BME280;71549;42.686;23.300;2023-12-20T03:20:50;94729.31;;;20.16;32.62
43217;BME280;71549;42.686;23.300;2023-12-20T03:22:54;94827.47;;;20.85;32.54
43217;BME280;71549;42.686;23.300;2023-12-20T03:24:54;94764.53;;;20.44;32.52
43217;BME280;71549;42.686;23.300;2023-12-20T03:26:55;94799.16;;;20.66;32.35
43217;BME280;71549;42.686;23.300;2023-12-20T03:28:56;94747.09;;;20.29;32.33
43217;BME280;71549;42.686;23.300;2023-12-20T03:30:57;94667.34;;;19.79;32.28
43217;BME280;71549;42.686;23.300;2023-12-20T03:32:58;94758.56;;;20.38;32.05
43217;BME280;71549;42.686;23.300;2023-12-20T03:34:59;94688.59;;;19.93;32.26
43217;BME280;71549;42.686;23.300;2023-12-20T03:36:59;94762.94;;;20.43;32.08
43217;BME280;71549;42.686;23.300;2023-12-20T03:39:00;94781.47;;;20.57;32.64
43217;BME280;71549;42.686;23.300;2023-12-20T03:41:00;94620.94;;;19.48;32.42
43217;BME280;71549;42.686;23.300;2023-12-20T03:43:00;94776.44;;;20.55;32.05
43217;BME280;71549;42.686;23.300;2023-12-20T03:45:01;94681.56;;;20.00;32.23
43217;BME280;71549;42.686;23.300;2023-12-20T03:47:02;94632.34;;;19.45;32.23
43217;BME280;71549;42.686;23.300;2023-12-20T03:49:02;94760.38;;;20.46;32.29
43217;BME280;71549;42.686;23.300;2023-12-20T03:51:03;94809.28;;;20.82;31.94
43217;BME280;71549;42.686;23.300;2023-12-20T03:53:03;94659.97;;;19.76;32.53
43217;BME280;71549;42.686;23.300;2023-12-20T03:55:09;94804.56;;;20.79;32.12
43217;BME280;71549;42.686;23.300;2023-12-20T03:57:11;94749.84;;;20.41;31.96
43217;BME280;71549;42.686;23.300;2023-12-20T03:59:11;94716.75;;;20.07;32.29
43217;BME280;71549;42.686;23.300;2023-12-20T04:01:12;94716.34;;;20.18;32.00
43217;BME280;71549;42.686;23.300;2023-12-20T04:03:13;94710.84;;;20.14;31.86
43217;BME280;71549;42.686;23.300;2023-12-20T04:05:13;94735.81;;;20.36;32.18
43217;BME280;71549;42.686;23.300;2023-12-20T04:07:14;94724.13;;;20.32;32.84
43217;BME280;71549;42.686;23.300;2023-12-20T04:09:15;94723.22;;;20.27;32.46
43217;BME280;71549;42.686;23.300;2023-12-20T04:11:16;94762.66;;;20.57;32.37
43217;BME280;71549;42.686;23.300;2023-12-20T04:13:17;94680.53;;;19.93;32.74
43217;BME280;71549;42.686;23.300;2023-12-20T04:15:17;94692.69;;;20.11;32.65
43217;BME280;71549;42.686;23.300;2023-12-20T04:17:18;94706.28;;;20.15;32.54
43217;BME280;71549;42.686;23.300;2023-12-20T04:19:18;94703.03;;;20.21;32.27
43217;BME280;71549;42.686;23.300;2023-12-20T04:21:19;94717.63;;;20.33;32.77
43217;BME280;71549;42.686;23.300;2023-12-20T04:23:19;94793.72;;;20.87;32.69
43217;BME280;71549;42.686;23.300;2023-12-20T04:25:20;94736.31;;;20.50;32.24
43217;BME280;71549;42.686;23.300;2023-12-20T04:27:20;94685.75;;;20.10;32.50
43217;BME280;71549;42.686;23.300;2023-12-20T04:29:21;94637.81;;;19.79;32.49
43217;BME280;71549;42.686;23.300;2023-12-20T04:31:21;94720.28;;;20.41;32.01
43217;BME280;71549;42.686;23.300;2023-12-20T04:33:23;94748.59;;;20.60;32.22
43217;BME280;71549;42.686;23.300;2023-12-20T04:35:23;94756.91;;;20.67;32.25
43217;BME280;71549;42.686;23.300;2023-12-20T04:37:25;94716.66;;;20.37;32.32
43217;BME280;71549;42.686;23.300;2023-12-20T04:39:26;94792.50;;;20.85;32.21
43217;BME280;71549;42.686;23.300;2023-12-20T04:41:27;94787.88;;;20.85;32.30
43217;BME280;71549;42.686;23.300;2023-12-20T04:43:29;94759.47;;;20.63;32.35
43217;BME280;71549;42.686;23.300;2023-12-20T04:45:32;94704.53;;;20.31;32.15
43217;BME280;71549;42.686;23.300;2023-12-20T04:47:32;94708.16;;;20.35;31.98
43217;BME280;71549;42.686;23.300;2023-12-20T04:49:33;94792.81;;;20.83;32.29
43217;BME280;71549;42.686;23.300;2023-12-20T04:51:34;94757.81;;;20.71;32.18
43217;BME280;71549;42.686;23.300;2023-12-20T04:53:35;94672.91;;;20.16;32.15
43217;BME280;71549;42.686;23.300;2023-12-20T04:55:35;94743.22;;;20.60;32.09
43217;BME280;71549;42.686;23.300;2023-12-20T04:57:36;94774.75;;;20.84;31.89
43217;BME280;71549;42.686;23.300;2023-12-20T04:59:37;94775.91;;;20.83;32.36
43217;BME280;71549;42.686;23.300;2023-12-20T05:01:37;94777.44;;;20.84;32.68
43217;BME280;71549;42.686;23.300;2023-12-20T05:03:38;94713.38;;;20.32;32.42
43217;BME280;71549;42.686;23.300;2023-12-20T05:05:38;94691.53;;;20.21;32.33
43217;BME280;71549;42.686;23.300;2023-12-20T05:07:39;94673.03;;;20.19;32.38
43217;BME280;71549;42.686;23.300;2023-12-20T05:09:40;94522.34;;;19.16;32.71
43217;BME280;71549;42.686;23.300;2023-12-20T05:11:40;94653.56;;;20.01;32.23
43217;BME280;71549;42.686;23.300;2023-12-20T05:13:41;94621.50;;;19.84;32.36
43217;BME280;71549;42.686;23.300;2023-12-20T05:15:41;94642.13;;;19.92;32.67
43217;BME280;71549;42.686;23.300;2023-12-20T05:17:42;94561.50;;;19.38;32.94
43217;BME280;71549;42.686;23.300;2023-12-20T05:19:43;94763.41;;;20.66;32.34
43217;BME280;71549;42.686;23.300;2023-12-20T05:21:43;94666.41;;;20.17;32.32
43217;BME280;71549;42.686;23.300;2023-12-20T05:23:44;94722.31;;;20.57;32.22
43217;BME280;71549;42.686;23.300;2023-12-20T05:25:44;94605.56;;;19.58;32.50
43217;BME280;71549;42.686;23.300;2023-12-20T05:27:45;94602.66;;;19.63;32.10
43217;BME280;71549;42.686;23.300;2023-12-20T05:29:46;94572.81;;;19.64;32.00
43217;BME280;71549;42.686;23.300;2023-12-20T05:31:46;94759.19;;;20.90;32.09
43217;BME280;71549;42.686;23.300;2023-12-20T05:33:48;94601.16;;;19.95;32.03
43217;BME280;71549;42.686;23.300;2023-12-20T05:35:49;94583.38;;;19.70;32.12
43217;BME280;71549;42.686;23.300;2023-12-20T05:37:50;94455.38;;;18.86;31.88
43217;BME280;71549;42.686;23.300;2023-12-20T05:39:50;94641.97;;;20.10;32.21
43217;BME280;71549;42.686;23.300;2023-12-20T05:41:51;94575.44;;;19.73;32.09
43217;BME280;71549;42.686;23.300;2023-12-20T05:43:51;94476.16;;;19.10;31.92
43217;BME280;71549;42.686;23.300;2023-12-20T05:45:52;94670.28;;;20.40;31.83
43217;BME280;71549;42.686;23.300;2023-12-20T05:47:52;94624.84;;;20.14;32.22
43217;BME280;71549;42.686;23.300;2023-12-20T05:49:53;94707.91;;;20.61;32.25
43217;BME280;71549;42.686;23.300;2023-12-20T05:51:54;94521.38;;;19.41;32.12
43217;BME280;71549;42.686;23.300;2023-12-20T05:53:55;94560.63;;;19.67;32.12
43217;BME280;71549;42.686;23.300;2023-12-20T05:55:55;94540.72;;;19.47;32.40
43217;BME280;71549;42.686;23.300;2023-12-20T05:57:56;94720.56;;;20.61;32.02
43217;BME280;71549;42.686;23.300;2023-12-20T05:59:56;94681.63;;;20.46;32.03
43217;BME280;71549;42.686;23.300;2023-12-20T06:01:57;94679.72;;;20.46;32.24
43217;BME280;71549;42.686;23.300;2023-12-20T06:03:57;94668.06;;;20.42;31.92
43217;BME280;71549;42.686;23.300;2023-12-20T06:05:58;94604.06;;;19.90;31.98
43217;BME280;71549;42.686;23.300;2023-12-20T06:08:00;94488.94;;;19.13;31.74
43217;BME280;71549;42.686;23.300;2023-12-20T06:10:03;94666.81;;;20.40;32.15
43217;BME280;71549;42.686;23.300;2023-12-20T06:12:04;94574.06;;;19.88;31.96
43217;BME280;71549;42.686;23.300;2023-12-20T06:14:04;94665.94;;;20.48;31.79
43217;BME280;71549;42.686;23.300;2023-12-20T06:16:06;94695.59;;;20.60;32.16
43217;BME280;71549;42.686;23.300;2023-12-20T06:20:08;94608.34;;;20.03;31.93
43217;BME280;71549;42.686;23.300;2023-12-20T06:22:09;94737.56;;;20.86;31.97
43217;BME280;71549;42.686;23.300;2023-12-20T06:24:09;94699.56;;;20.54;32.22
43217;BME280;71549;42.686;23.300;2023-12-20T06:26:10;94684.69;;;20.57;32.02
43217;BME280;71549;42.686;23.300;2023-12-20T06:28:11;94653.22;;;20.24;32.25
43217;BME280;71549;42.686;23.300;2023-12-20T06:30:15;94731.94;;;20.79;32.20
43217;BME280;71549;42.686;23.300;2023-12-20T06:32:17;94580.88;;;19.85;32.26
43217;BME280;71549;42.686;23.300;2023-12-20T06:34:17;94704.78;;;20.72;32.16
43217;BME280;71549;42.686;23.300;2023-12-20T06:36:18;94691.97;;;20.56;32.33
43217;BME280;71549;42.686;23.300;2023-12-20T06:38:19;94530.75;;;19.68;32.75
43217;BME280;71549;42.686;23.300;2023-12-20T06:40:19;94729.09;;;21.09;32.65
43217;BME280;71549;42.686;23.300;2023-12-20T06:42:20;94641.03;;;20.60;31.89
43217;BME280;71549;42.686;23.300;2023-12-20T06:44:21;94515.66;;;19.64;32.47
43217;BME280;71549;42.686;23.300;2023-12-20T06:46:21;94572.88;;;20.10;32.09
43217;BME280;71549;42.686;23.300;2023-12-20T06:48:22;94498.19;;;19.58;31.96
43217;BME280;71549;42.686;23.300;2023-12-20T06:50:22;94595.06;;;20.07;31.88
43217;BME280;71549;42.686;23.300;2023-12-20T06:52:23;94597.53;;;20.12;31.95
43217;BME280;71549;42.686;23.300;2023-12-20T06:54:23;94620.91;;;20.45;31.63
43217;BME280;71549;42.686;23.300;2023-12-20T06:56:24;94652.47;;;20.69;32.09
43217;BME280;71549;42.686;23.300;2023-12-20T06:58:24;94650.00;;;20.64;31.95
43217;BME280;71549;42.686;23.300;2023-12-20T07:00:25;94618.00;;;20.50;31.78
43217;BME280;71549;42.686;23.300;2023-12-20T07:02:25;94587.84;;;20.32;31.75
43217;BME280;71549;42.686;23.300;2023-12-20T07:04:29;94488.44;;;19.65;31.96
43217;BME280;71549;42.686;23.300;2023-12-20T07:06:30;94553.75;;;20.12;31.82
43217;BME280;71549;42.686;23.300;2023-12-20T07:08:30;94662.13;;;20.82;31.74
43217;BME280;71549;42.686;23.300;2023-12-20T07:10:31;94566.31;;;20.20;31.78
43217;BME280;71549;42.686;23.300;2023-12-20T07:12:31;94700.94;;;21.06;31.76
43217;BME280;71549;42.686;23.300;2023-12-20T07:14:32;94487.63;;;19.53;31.87
43217;BME280;71549;42.686;23.300;2023-12-20T07:16:34;94611.28;;;20.44;31.95
43217;BME280;71549;42.686;23.300;2023-12-20T07:18:35;94605.28;;;20.26;31.69
43217;BME280;71549;42.686;23.300;2023-12-20T07:20:35;94656.50;;;20.75;32.15
43217;BME280;71549;42.686;23.300;2023-12-20T07:22:36;94606.91;;;20.39;31.94
43217;BME280;71549;42.686;23.300;2023-12-20T07:24:37;94647.97;;;20.73;31.94
43217;BME280;71549;42.686;23.300;2023-12-20T07:26:38;94624.53;;;20.61;32.22
43217;BME280;71549;42.686;23.300;2023-12-20T07:28:39;94594.59;;;20.51;31.83
43217;BME280;71549;42.686;23.300;2023-12-20T07:30:40;94625.38;;;20.53;32.37
43217;BME280;71549;42.686;23.300;2023-12-20T07:32:42;94681.28;;;20.81;32.19
43217;BME280;71549;42.686;23.300;2023-12-20T07:34:43;94484.59;;;19.42;32.19
43217;BME280;71549;42.686;23.300;2023-12-20T07:36:44;94496.00;;;19.51;32.09
43217;BME280;71549;42.686;23.300;2023-12-20T07:38:45;94621.88;;;20.28;32.29
43217;BME280;71549;42.686;23.300;2023-12-20T07:40:45;94489.69;;;19.35;32.37
43217;BME280;71549;42.686;23.300;2023-12-20T07:42:46;94634.75;;;20.35;31.94
43217;BME280;71549;42.686;23.300;2023-12-20T07:44:47;94688.19;;;20.70;32.21
43217;BME280;71549;42.686;23.300;2023-12-20T07:46:48;94669.69;;;20.56;31.94
43217;BME280;71549;42.686;23.300;2023-12-20T07:48:49;94571.03;;;19.90;32.29
43217;BME280;71549;42.686;23.300;2023-12-20T07:50:49;94629.28;;;20.31;31.84
43217;BME280;71549;42.686;23.300;2023-12-20T07:52:50;94543.09;;;19.70;32.06
43217;BME280;71549;42.686;23.300;2023-12-20T07:54:50;94684.72;;;20.69;32.23
43217;BME280;71549;42.686;23.300;2023-12-20T07:56:51;94572.63;;;19.91;32.13
43217;BME280;71549;42.686;23.300;2023-12-20T07:58:51;94620.63;;;20.25;32.07
43217;BME280;71549;42.686;23.300;2023-12-20T08:00:52;94687.88;;;20.71;32.11
43217;BME280;71549;42.686;23.300;2023-12-20T08:02:52;94670.59;;;20.60;31.70
43217;BME280;71549;42.686;23.300;2023-12-20T08:04:53;94572.88;;;20.10;31.80
43217;BME280;71549;42.686;23.300;2023-12-20T08:06:53;94658.28;;;20.59;31.73
43217;BME280;71549;42.686;23.300;2023-12-20T08:08:54;94646.34;;;20.47;32.00
43217;BME280;71549;42.686;23.300;2023-12-20T08:10:54;94563.56;;;19.95;31.78
43217;BME280;71549;42.686;23.300;2023-12-20T08:12:55;94647.34;;;20.55;31.77
43217;BME280;71549;42.686;23.300;2023-12-20T08:14:56;94607.34;;;20.29;31.50
43217;BME280;71549;42.686;23.300;2023-12-20T08:16:57;94626.94;;;20.42;31.50
43217;BME280;71549;42.686;23.300;2023-12-20T08:18:58;94635.81;;;20.55;31.48
43217;BME280;71549;42.686;23.300;2023-12-20T08:20:58;94533.13;;;20.03;31.33
43217;BME280;71549;42.686;23.300;2023-12-20T08:22:59;94636.88;;;20.62;31.58
43217;BME280;71549;42.686;23.300;2023-12-20T08:24:59;94528.31;;;19.97;31.54
43217;BME280;71549;42.686;23.300;2023-12-20T08:27:00;94627.69;;;20.63;31.48
43217;BME280;71549;42.686;23.300;2023-12-20T08:29:00;94514.31;;;19.91;31.25
43217;BME280;71549;42.686;23.300;2023-12-20T08:31:02;94535.16;;;20.06;31.19
43217;BME280;71549;42.686;23.300;2023-12-20T08:33:04;94570.59;;;20.21;31.46
43217;BME280;71549;42.686;23.300;2023-12-20T08:35:05;94602.00;;;20.54;31.38
43217;BME280;71549;42.686;23.300;2023-12-20T08:37:05;94586.31;;;20.43;31.08
43217;BME280;71549;42.686;23.300;2023-12-20T08:39:06;94492.69;;;19.87;31.54
43217;BME280;71549;42.686;23.300;2023-12-20T08:41:07;94514.31;;;20.03;31.59
43217;BME280;71549;42.686;23.300;2023-12-20T08:43:08;94532.81;;;20.05;31.29
43217;BME280;71549;42.686;23.300;2023-12-20T08:45:09;94505.16;;;20.04;31.33
43217;BME280;71549;42.686;23.300;2023-12-20T08:47:10;94628.81;;;20.75;31.49
43217;BME280;71549;42.686;23.300;2023-12-20T08:49:14;94434.53;;;19.58;31.31
43217;BME280;71549;42.686;23.300;2023-12-20T08:51:14;94622.31;;;20.76;31.26
43217;BME280;71549;42.686;23.300;2023-12-20T08:53:15;94606.41;;;20.71;31.11
43217;BME280;71549;42.686;23.300;2023-12-20T08:55:17;94548.72;;;20.22;31.15
43217;BME280;71549;42.686;23.300;2023-12-20T08:57:19;94589.56;;;20.61;31.36
43217;BME280;71549;42.686;23.300;2023-12-20T08:59:21;94560.53;;;20.42;31.30
43217;BME280;71549;42.686;23.300;2023-12-20T09:01:21;94576.09;;;20.49;31.26
43217;BME280;71549;42.686;23.300;2023-12-20T09:03:22;94588.69;;;20.70;31.41
43217;BME280;71549;42.686;23.300;2023-12-20T09:05:22;94497.44;;;20.15;31.30
43217;BME280;71549;42.686;23.300;2023-12-20T09:07:26;94507.19;;;20.20;31.36
43217;BME280;71549;42.686;23.300;2023-12-20T09:09:27;94496.44;;;20.20;31.20
43217;BME280;71549;42.686;23.300;2023-12-20T09:11:28;94503.72;;;20.32;31.33
43217;BME280;71549;42.686;23.300;2023-12-20T09:13:29;94574.34;;;20.78;30.99
43217;BME280;71549;42.686;23.300;2023-12-20T09:15:29;94404.38;;;19.74;31.27
43217;BME280;71549;42.686;23.300;2023-12-20T09:17:30;94474.38;;;20.26;31.23
43217;BME280;71549;42.686;23.300;2023-12-20T09:19:31;94434.06;;;20.02;31.21
43217;BME280;71549;42.686;23.300;2023-12-20T09:21:31;94416.81;;;19.91;31.18
43217;BME280;71549;42.686;23.300;2023-12-20T09:23:32;94479.53;;;20.32;31.14
43217;BME280;71549;42.686;23.300;2023-12-20T09:25:32;94432.97;;;20.15;31.15
43217;BME280;71549;42.686;23.300;2023-12-20T09:27:33;94432.97;;;20.15;31.40
43217;BME280;71549;42.686;23.300;2023-12-20T09:29:33;94483.34;;;20.43;31.33
43217;BME280;71549;42.686;23.300;2023-12-20T09:31:36;94442.94;;;20.27;31.35
43217;BME280;71549;42.686;23.300;2023-12-20T09:33:37;94510.47;;;20.75;31.10
43217;BME280;71549;42.686;23.300;2023-12-20T09:35:37;94368.47;;;19.91;31.08
43217;BME280;71549;42.686;23.300;2023-12-20T09:37:38;94359.06;;;19.72;31.08
43217;BME280;71549;42.686;23.300;2023-12-20T09:39:41;94421.63;;;20.22;31.10
43217;BME280;71549;42.686;23.300;2023-12-20T09:41:44;94467.19;;;20.55;30.91
43217;BME280;71549;42.686;23.300;2023-12-20T09:43:48;94398.13;;;20.19;31.05
43217;BME280;71549;42.686;23.300;2023-12-20T09:45:52;94410.69;;;20.27;30.96
43217;BME280;71549;42.686;23.300;2023-12-20T09:47:53;94400.59;;;20.24;30.94
43217;BME280;71549;42.686;23.300;2023-12-20T09:49:57;94349.56;;;19.87;30.78
43217;BME280;71549;42.686;23.300;2023-12-20T09:51:59;94482.56;;;20.79;31.10
43217;BME280;71549;42.686;23.300;2023-12-20T09:54:05;94430.13;;;20.48;31.05
43217;BME280;71549;42.686;23.300;2023-12-20T09:56:06;94377.75;;;20.18;31.19
43217;BME280;71549;42.686;23.300;2023-12-20T09:58:06;94472.03;;;20.74;31.12
43217;BME280;71549;42.686;23.300;2023-12-20T10:00:09;94333.78;;;19.85;30.99
43217;BME280;71549;42.686;23.300;2023-12-20T10:02:13;94347.44;;;19.93;30.97
43217;BME280;71549;42.686;23.300;2023-12-20T10:04:16;94389.06;;;20.23;31.12
43217;BME280;71549;42.686;23.300;2023-12-20T10:06:17;94347.56;;;19.96;31.07
43217;BME280;71549;42.686;23.300;2023-12-20T10:08:21;94397.13;;;20.23;31.16
43217;BME280;71549;42.686;23.300;2023-12-20T10:10:22;94336.00;;;19.96;31.03
43217;BME280;71549;42.686;23.300;2023-12-20T10:12:23;94427.09;;;20.75;30.74
43217;BME280;71549;42.686;23.300;2023-12-20T10:14:23;94477.72;;;20.97;31.04
43217;BME280;71549;42.686;23.300;2023-12-20T10:16:28;94357.91;;;20.35;30.78
43217;BME280;71549;42.686;23.300;2023-12-20T10:18:29;94406.72;;;20.61;30.96
43217;BME280;71549;42.686;23.300;2023-12-20T10:20:30;94446.91;;;20.95;30.82
43217;BME280;71549;42.686;23.300;2023-12-20T10:22:31;94278.63;;;19.88;31.06
43217;BME280;71549;42.686;23.300;2023-12-20T10:24:32;94444.66;;;20.97;31.19
43217;BME280;71549;42.686;23.300;2023-12-20T10:26:34;94322.91;;;20.06;30.86
43217;BME280;71549;42.686;23.300;2023-12-20T10:28:34;94115.91;;;18.85;30.98
43217;BME280;71549;42.686;23.300;2023-12-20T10:30:36;94344.09;;;20.48;31.07
43217;BME280;71549;42.686;23.300;2023-12-20T10:32:38;94249.63;;;19.81;30.87
43217;BME280;71549;42.686;23.300;2023-12-20T10:34:38;94345.44;;;20.55;30.97
43217;BME280;71549;42.686;23.300;2023-12-20T10:36:39;94380.47;;;20.83;31.01
43217;BME280;71549;42.686;23.300;2023-12-20T10:38:42;94366.72;;;20.72;31.05